createdAt,value
2019-03-04T00:00:41.789Z,12.25
2019-03-04T00:03:09.020Z,12.25
2019-03-04T00:05:36.930Z,12.24
2019-03-04T00:08:03.887Z,12.21
2019-03-04T00:10:31.275Z,12.17
2019-03-04T00:12:59.180Z,12.11
2019-03-04T00:15:26.568Z,12.06
2019-03-04T00:17:54.609Z,12.09
2019-03-04T00:20:24.937Z,12.13
2019-03-04T00:22:52.360Z,12.19
2019-03-04T00:25:22.498Z,12.21
2019-03-04T00:27:51.529Z,12.23
2019-03-04T00:30:18.776Z,12.22
2019-03-04T00:32:46.187Z,12.16
2019-03-04T00:35:13.629Z,12.11
2019-03-04T00:37:41.170Z,12.11
2019-03-04T00:40:15.086Z,12.17
2019-03-04T00:42:42.585Z,12.19
2019-03-04T00:45:12.529Z,12.18
2019-03-04T00:47:39.628Z,12.07
2019-03-04T00:50:11.979Z,11.92
2019-03-04T00:52:38.929Z,11.76
2019-03-04T00:55:07.708Z,11.66
2019-03-04T00:57:34.824Z,11.61
2019-03-04T01:00:05.252Z,11.58
2019-03-04T01:02:32.035Z,11.58
2019-03-04T01:04:58.805Z,11.58
2019-03-04T01:07:25.955Z,11.63
2019-03-04T01:09:53.285Z,11.68
2019-03-04T01:12:20.792Z,11.72
2019-03-04T01:14:47.599Z,11.75
2019-03-04T01:17:15.087Z,11.76
2019-03-04T01:19:42.126Z,11.74
2019-03-04T01:22:08.942Z,11.72
2019-03-04T01:24:36.088Z,11.73
2019-03-04T01:27:02.867Z,11.79
2019-03-04T01:29:29.913Z,11.83
2019-03-04T01:31:56.645Z,11.88
2019-03-04T01:34:24.327Z,11.97
2019-03-04T01:36:51.114Z,11.99
2019-03-04T01:39:18.433Z,12.02
2019-03-04T01:41:45.779Z,12.02
2019-03-04T01:44:14.060Z,12.02
2019-03-04T01:46:40.897Z,12.04
2019-03-04T01:49:07.827Z,12.00
2019-03-04T01:51:34.562Z,11.95
2019-03-04T01:54:01.450Z,11.89
2019-03-04T01:56:28.426Z,11.87
2019-03-04T01:58:55.599Z,11.83
2019-03-04T02:01:22.491Z,11.78
2019-03-04T02:03:50.112Z,11.76
2019-03-04T02:06:17.080Z,11.70
2019-03-04T02:08:43.871Z,11.66
2019-03-04T02:11:10.847Z,11.63
2019-03-04T02:13:37.806Z,11.61
2019-03-04T02:16:07.275Z,11.56
2019-03-04T02:18:35.239Z,11.52
2019-03-04T02:21:02.415Z,11.47
2019-03-04T02:23:31.028Z,11.40
2019-03-04T02:26:06.214Z,11.37
2019-03-04T02:28:33.083Z,11.35
2019-03-04T02:31:00.164Z,11.37
2019-03-04T02:33:30.344Z,11.37
2019-03-04T02:35:57.226Z,11.37
2019-03-04T02:38:24.686Z,11.38
2019-03-04T02:40:51.454Z,11.38
2019-03-04T02:43:18.541Z,11.38
2019-03-04T02:45:45.357Z,11.37
2019-03-04T02:48:13.054Z,11.38
2019-03-04T02:50:39.879Z,11.37
2019-03-04T02:53:07.056Z,11.31
2019-03-04T02:55:34.208Z,11.23
2019-03-04T02:58:01.094Z,11.02
2019-03-04T03:00:28.169Z,10.90
2019-03-04T03:02:54.989Z,10.85
2019-03-04T03:05:21.814Z,10.82
2019-03-04T03:07:49.030Z,10.74
2019-03-04T03:10:16.154Z,10.60
2019-03-04T03:12:43.017Z,10.50
2019-03-04T03:15:13.925Z,10.55
2019-03-04T03:17:40.870Z,10.60
2019-03-04T03:20:15.077Z,10.56
2019-03-04T03:22:42.170Z,10.48
2019-03-04T03:25:12.186Z,10.35
2019-03-04T03:27:39.059Z,10.35
2019-03-04T03:30:16.754Z,10.35
2019-03-04T03:32:43.609Z,10.37
2019-03-04T03:35:10.716Z,10.38
2019-03-04T03:37:37.725Z,10.35
2019-03-04T03:40:09.732Z,10.33
2019-03-04T03:42:37.123Z,10.35
2019-03-04T03:45:07.312Z,10.30
2019-03-04T03:47:34.237Z,10.31
2019-03-04T03:50:01.051Z,10.34
2019-03-04T03:52:28.020Z,10.40
2019-03-04T03:54:54.868Z,10.38
2019-03-04T03:57:21.712Z,10.31
2019-03-04T03:59:48.935Z,10.27
2019-03-04T04:02:16.168Z,10.21
2019-03-04T04:04:42.932Z,10.19
2019-03-04T04:07:09.862Z,10.14
2019-03-04T04:09:36.612Z,10.15
2019-03-04T04:12:03.851Z,10.15
2019-03-04T04:14:30.709Z,10.16
2019-03-04T04:16:57.697Z,10.14
2019-03-04T04:19:25.054Z,10.13
2019-03-04T04:21:51.974Z,10.07
2019-03-04T04:24:19.147Z,10.05
2019-03-04T04:26:46.139Z,10.01
2019-03-04T04:29:13.959Z,9.98
2019-03-04T04:31:41.903Z,9.94
2019-03-04T04:34:09.068Z,9.98
2019-03-04T04:36:36.176Z,9.98
2019-03-04T04:39:04.918Z,9.98
2019-03-04T04:41:31.689Z,9.95
2019-03-04T04:43:59.981Z,9.97
2019-03-04T04:46:49.798Z,10.00
2019-03-04T04:49:17.122Z,10.12
2019-03-04T04:51:44.112Z,10.12
2019-03-04T04:54:12.233Z,10.13
2019-03-04T04:56:39.501Z,10.15
2019-03-04T04:59:06.472Z,10.12
2019-03-04T05:01:33.357Z,10.08
2019-03-04T05:04:00.508Z,10.05
2019-03-04T05:06:27.300Z,10.07
2019-03-04T05:08:54.151Z,10.05
2019-03-04T05:11:21.300Z,10.06
2019-03-04T05:13:48.112Z,10.03
2019-03-04T05:16:14.900Z,10.00
2019-03-04T05:18:41.833Z,9.99
2019-03-04T05:21:09.077Z,9.95
2019-03-04T05:23:36.334Z,9.88
2019-03-04T05:26:03.904Z,9.68
2019-03-04T05:28:30.957Z,9.57
2019-03-04T05:30:57.783Z,9.55
2019-03-04T05:33:24.986Z,9.53
2019-03-04T05:35:52.210Z,9.58
2019-03-04T05:38:19.690Z,9.65
2019-03-04T05:40:46.790Z,9.71
2019-03-04T05:43:13.898Z,9.68
2019-03-04T05:45:40.663Z,9.56
2019-03-04T05:48:07.756Z,9.58
2019-03-04T05:50:35.274Z,9.49
2019-03-04T05:53:02.507Z,9.45
2019-03-04T05:55:29.375Z,9.39
2019-03-04T05:57:56.159Z,9.19
2019-03-04T06:00:24.846Z,9.16
2019-03-04T06:03:15.487Z,9.16
2019-03-04T06:05:42.312Z,9.18
2019-03-04T06:08:12.114Z,9.28
2019-03-04T06:10:39.414Z,9.28
2019-03-04T06:13:06.311Z,9.20
2019-03-04T06:15:33.189Z,9.07
2019-03-04T06:18:00.045Z,9.08
2019-03-04T06:20:26.888Z,9.12
2019-03-04T06:22:54.003Z,9.15
2019-03-04T06:25:27.297Z,9.14
2019-03-04T06:27:56.938Z,9.11
2019-03-04T06:30:28.917Z,9.06
2019-03-04T06:32:55.699Z,8.97
2019-03-04T06:35:22.706Z,8.91
2019-03-04T06:37:49.889Z,8.97
2019-03-04T06:40:18.444Z,9.05
2019-03-04T06:42:45.648Z,9.13
2019-03-04T06:45:18.660Z,9.12
2019-03-04T06:47:45.451Z,9.15
2019-03-04T06:50:54.823Z,9.16
2019-03-04T06:53:36.297Z,9.30
2019-03-04T06:56:29.110Z,9.52
2019-03-04T06:59:04.654Z,9.83
2019-03-04T07:01:55.289Z,10.80
2019-03-04T07:04:30.648Z,11.46
2019-03-04T07:06:57.767Z,11.85
2019-03-04T07:09:24.882Z,12.18
2019-03-04T07:11:52.192Z,12.34
2019-03-04T07:14:19.596Z,12.48
2019-03-04T07:16:47.231Z,12.62
2019-03-04T07:19:15.375Z,12.67
2019-03-04T07:21:43.060Z,12.59
2019-03-04T07:24:10.481Z,12.54
2019-03-04T07:26:39.882Z,12.43
2019-03-04T07:29:07.300Z,12.32
2019-03-04T07:31:34.473Z,12.23
2019-03-04T07:34:01.860Z,12.16
2019-03-04T07:36:29.278Z,12.06
2019-03-04T07:38:56.399Z,11.96
2019-03-04T07:41:23.461Z,11.84
2019-03-04T07:43:50.598Z,11.74
2019-03-04T07:46:19.493Z,11.67
2019-03-04T07:48:46.359Z,11.54
2019-03-04T07:51:17.339Z,11.44
2019-03-04T07:53:46.585Z,11.29
2019-03-04T07:56:13.231Z,11.11
2019-03-04T07:58:41.255Z,10.94
2019-03-04T08:01:08.098Z,10.74
2019-03-04T08:03:35.764Z,10.47
2019-03-04T08:06:03.223Z,10.27
2019-03-04T08:08:31.814Z,10.07
2019-03-04T08:11:44.954Z,9.92
2019-03-04T08:14:12.866Z,9.76
2019-03-04T08:16:39.670Z,9.69
2019-03-04T08:19:07.447Z,9.58
2019-03-04T08:21:35.182Z,9.54
2019-03-04T08:24:02.599Z,9.56
2019-03-04T08:26:29.585Z,9.55
2019-03-04T08:28:58.738Z,9.63
2019-03-04T08:31:26.883Z,9.72
2019-03-04T08:33:54.209Z,9.74
2019-03-04T08:36:21.981Z,9.84
2019-03-04T08:38:48.867Z,9.94
2019-03-04T08:41:15.754Z,10.00
2019-03-04T08:43:43.330Z,10.07
2019-03-04T08:46:10.608Z,10.13
2019-03-04T08:48:37.596Z,10.21
2019-03-04T08:51:04.794Z,10.31
2019-03-04T08:53:32.380Z,10.41
2019-03-04T08:55:59.528Z,10.45
2019-03-04T08:58:27.285Z,10.49
2019-03-04T09:00:54.407Z,10.55
2019-03-04T09:03:21.530Z,10.61
2019-03-04T09:05:49.296Z,10.63
2019-03-04T09:08:16.936Z,10.65
2019-03-04T09:10:44.227Z,10.66
2019-03-04T09:13:13.965Z,10.76
2019-03-04T09:15:40.977Z,10.81
2019-03-04T09:18:10.907Z,10.88
2019-03-04T09:20:49.196Z,10.96
2019-03-04T09:23:16.510Z,11.02
2019-03-04T09:25:59.553Z,11.03
2019-03-04T09:28:29.109Z,11.01
2019-03-04T09:30:59.384Z,11.04
2019-03-04T09:33:31.316Z,11.04
2019-03-04T09:35:58.379Z,11.04
2019-03-04T09:38:25.338Z,11.04
2019-03-04T09:40:52.897Z,11.04
2019-03-04T09:43:20.394Z,11.03
2019-03-04T09:45:47.580Z,11.04
2019-03-04T09:48:14.474Z,11.04
2019-03-04T09:50:41.621Z,11.03
2019-03-04T09:53:08.435Z,11.04
2019-03-04T09:55:36.344Z,11.03
2019-03-04T09:58:04.027Z,10.99
2019-03-04T10:00:45.912Z,10.97
2019-03-04T10:03:39.805Z,11.01
2019-03-04T10:06:48.454Z,11.01
2019-03-04T10:09:59.586Z,11.03
2019-03-04T10:12:53.662Z,11.00
2019-03-04T10:15:29.704Z,11.03
2019-03-04T10:18:21.444Z,11.08
2019-03-04T10:21:06.066Z,11.07
2019-03-04T10:24:16.175Z,11.12
2019-03-04T10:27:01.228Z,11.09
2019-03-04T10:29:37.210Z,11.08
2019-03-04T10:32:25.219Z,11.08
2019-03-04T10:35:07.055Z,11.11
2019-03-04T10:37:51.774Z,11.09
2019-03-04T10:40:44.076Z,11.06
2019-03-04T10:43:48.824Z,11.06
2019-03-04T10:46:29.954Z,11.02
2019-03-04T10:48:57.510Z,11.01
2019-03-04T10:51:24.324Z,11.03
2019-03-04T10:53:51.985Z,11.05
2019-03-04T10:56:18.928Z,11.07
2019-03-04T10:58:45.843Z,11.12
2019-03-04T11:01:13.119Z,11.15
2019-03-04T11:03:40.054Z,11.14
2019-03-04T11:06:07.283Z,11.17
2019-03-04T11:08:34.452Z,11.29
2019-03-04T11:11:02.113Z,11.32
2019-03-04T11:13:29.158Z,11.43
2019-03-04T11:15:56.556Z,11.70
2019-03-04T11:18:24.251Z,11.78
2019-03-04T11:20:51.314Z,11.81
2019-03-04T11:23:20.081Z,11.85
2019-03-04T11:25:47.116Z,11.92
2019-03-04T11:28:14.448Z,11.89
2019-03-04T11:30:41.370Z,11.91
2019-03-04T11:33:09.069Z,11.85
2019-03-04T11:35:38.044Z,11.88
2019-03-04T11:38:27.810Z,11.92
2019-03-04T11:40:55.596Z,11.93
2019-03-04T11:43:22.407Z,12.03
2019-03-04T11:45:49.809Z,12.06
2019-03-04T11:48:16.950Z,12.15
2019-03-04T11:50:44.064Z,12.25
2019-03-04T11:53:10.926Z,12.19
2019-03-04T11:55:37.692Z,12.06
2019-03-04T11:58:04.435Z,12.04
2019-03-04T12:00:33.324Z,12.17
2019-03-04T12:03:00.192Z,12.10
2019-03-04T12:05:27.524Z,12.12
2019-03-04T12:07:57.822Z,12.21
2019-03-04T12:10:32.184Z,12.32
2019-03-04T12:13:06.792Z,12.32
2019-03-04T12:15:42.997Z,12.27
2019-03-04T12:18:16.515Z,12.18
2019-03-04T12:20:45.724Z,12.11
2019-03-04T12:23:16.042Z,12.20
2019-03-04T12:25:46.278Z,14.08
2019-03-04T12:28:32.430Z,15.47
2019-03-04T12:30:59.884Z,15.35
2019-03-04T12:33:33.042Z,16.81
2019-03-04T12:36:03.158Z,17.27
2019-03-04T12:38:36.029Z,17.67
2019-03-04T12:41:07.545Z,18.19
2019-03-04T12:43:38.478Z,18.45
2019-03-04T12:46:13.560Z,18.35
2019-03-04T12:49:12.539Z,19.14
2019-03-04T12:51:40.210Z,18.66
2019-03-04T12:54:12.202Z,18.37
2019-03-04T12:56:39.726Z,18.88
2019-03-04T12:59:06.571Z,19.34
2019-03-04T13:01:34.176Z,19.42
2019-03-04T13:04:01.391Z,19.65
2019-03-04T13:06:28.656Z,19.37
2019-03-04T13:08:55.421Z,20.18
2019-03-04T13:11:22.214Z,20.48
2019-03-04T13:13:49.368Z,20.43
2019-03-04T13:16:16.320Z,20.16
2019-03-04T13:18:43.176Z,19.90
2019-03-04T13:21:10.524Z,19.32
2019-03-04T13:23:37.777Z,19.19
2019-03-04T13:26:04.948Z,17.93
2019-03-04T13:28:31.907Z,17.43
2019-03-04T13:30:59.300Z,17.21
2019-03-04T13:33:26.556Z,16.08
2019-03-04T13:35:54.850Z,15.34
2019-03-04T13:38:21.769Z,14.72
2019-03-04T13:40:48.669Z,14.26
2019-03-04T13:43:16.621Z,13.94
2019-03-04T13:45:43.975Z,13.54
2019-03-04T13:48:11.861Z,13.09
2019-03-04T13:50:39.251Z,12.75
2019-03-04T13:53:06.690Z,12.68
2019-03-04T13:55:33.939Z,12.55
2019-03-04T13:58:00.809Z,13.05
2019-03-04T14:00:32.393Z,14.23
2019-03-04T14:02:59.503Z,15.19
2019-03-04T14:05:26.246Z,14.57
2019-03-04T14:07:53.149Z,14.79
2019-03-04T14:10:37.164Z,15.77
2019-03-04T14:13:04.321Z,15.16
2019-03-04T14:15:42.321Z,14.33
2019-03-04T14:18:09.226Z,13.77
2019-03-04T14:20:36.313Z,13.20
2019-03-04T14:23:03.524Z,13.09
2019-03-04T14:25:30.338Z,13.22
2019-03-04T14:27:57.253Z,13.41
2019-03-04T14:30:24.609Z,13.20
2019-03-04T14:32:51.461Z,12.88
2019-03-04T14:35:18.330Z,12.85
2019-03-04T14:37:45.199Z,12.58
2019-03-04T14:40:17.823Z,12.53
2019-03-04T14:42:46.303Z,12.46
2019-03-04T14:45:23.580Z,12.49
2019-03-04T14:47:51.003Z,12.39
2019-03-04T14:50:20.273Z,12.27
2019-03-04T14:52:47.197Z,12.19
2019-03-04T14:55:20.228Z,12.13
2019-03-04T14:57:47.171Z,12.12
2019-03-04T15:00:37.362Z,12.12
2019-03-04T15:03:05.414Z,12.14
2019-03-04T15:05:32.600Z,11.82
2019-03-04T15:07:59.492Z,11.67
2019-03-04T15:10:26.539Z,11.47
2019-03-04T15:12:53.680Z,11.06
2019-03-04T15:15:26.398Z,10.71
2019-03-04T15:17:53.639Z,10.23
2019-03-04T15:20:24.131Z,9.24
2019-03-04T15:22:51.017Z,8.18
2019-03-04T15:25:31.250Z,7.68
2019-03-04T15:28:22.601Z,7.56
2019-03-04T15:31:00.038Z,7.63
2019-03-04T15:33:26.992Z,7.70
2019-03-04T15:35:53.934Z,7.86
2019-03-04T15:38:20.964Z,7.80
2019-03-04T15:40:47.723Z,7.91
2019-03-04T15:43:14.550Z,8.10
2019-03-04T15:45:43.795Z,8.29
2019-03-04T15:48:11.335Z,8.45
2019-03-04T15:50:38.712Z,8.62
2019-03-04T15:53:05.677Z,8.71
2019-03-04T15:55:33.136Z,8.65
2019-03-04T15:58:00.093Z,8.68
2019-03-04T16:00:26.970Z,8.73
2019-03-04T16:02:54.344Z,8.80
2019-03-04T16:05:21.125Z,8.86
2019-03-04T16:07:48.020Z,8.80
2019-03-04T16:10:30.635Z,8.93
2019-03-04T16:12:57.615Z,8.85
2019-03-04T16:15:24.429Z,8.94
2019-03-04T16:17:51.307Z,8.87
2019-03-04T16:20:21.159Z,8.68
2019-03-04T16:22:50.279Z,8.83
2019-03-04T16:25:19.146Z,8.84
2019-03-04T16:27:46.233Z,8.76
2019-03-04T16:30:22.105Z,8.75
2019-03-04T16:32:49.321Z,8.76
2019-03-04T16:35:16.178Z,8.85
2019-03-04T16:37:43.143Z,8.96
2019-03-04T16:40:17.512Z,8.92
2019-03-04T16:42:44.619Z,8.81
2019-03-04T16:45:16.810Z,8.40
2019-03-04T16:47:43.811Z,8.18
2019-03-04T16:50:14.135Z,8.00
2019-03-04T16:52:43.530Z,7.86
2019-03-04T16:55:13.452Z,7.85
2019-03-04T16:57:40.597Z,7.66
2019-03-04T17:00:12.939Z,7.55
2019-03-04T17:02:40.326Z,7.50
2019-03-04T17:05:10.725Z,7.46
2019-03-04T17:07:37.527Z,7.52
2019-03-04T17:10:11.716Z,7.45
2019-03-04T17:12:40.803Z,7.40
2019-03-04T17:15:15.110Z,7.40
2019-03-04T17:17:41.878Z,7.47
2019-03-04T17:20:13.451Z,7.44
2019-03-04T17:22:40.629Z,7.59
2019-03-04T17:25:17.272Z,7.52
2019-03-04T17:27:44.217Z,7.47
2019-03-04T17:30:14.710Z,7.52
2019-03-04T17:32:42.016Z,7.52
2019-03-04T17:35:12.219Z,7.53
2019-03-04T17:37:39.761Z,7.52
2019-03-04T17:40:15.428Z,7.49
2019-03-04T17:42:42.802Z,7.51
2019-03-04T17:45:13.289Z,7.66
2019-03-04T17:47:40.062Z,7.63
2019-03-04T17:50:27.501Z,7.63
2019-03-04T17:52:54.491Z,7.45
2019-03-04T17:55:21.787Z,7.41
2019-03-04T17:57:48.912Z,7.46
2019-03-04T18:00:18.672Z,7.36
2019-03-04T18:02:48.179Z,7.33
2019-03-04T18:05:14.982Z,7.22
2019-03-04T18:07:41.750Z,7.19
2019-03-04T18:10:14.646Z,7.23
2019-03-04T18:12:41.905Z,7.28
2019-03-04T18:15:19.642Z,7.25
2019-03-04T18:17:46.714Z,7.27
2019-03-04T18:20:17.469Z,7.13
2019-03-04T18:22:44.777Z,7.11
2019-03-04T18:25:29.023Z,7.09
2019-03-04T18:28:13.411Z,7.08
2019-03-04T18:30:58.215Z,7.14
2019-03-04T18:33:45.582Z,7.08
2019-03-04T18:36:27.218Z,7.12
2019-03-04T18:39:28.756Z,7.10
2019-03-04T18:42:20.802Z,7.19
2019-03-04T18:44:56.218Z,7.20
2019-03-04T18:47:46.760Z,7.23
2019-03-04T18:50:13.886Z,7.10
2019-03-04T18:52:40.692Z,7.12
2019-03-04T18:55:08.419Z,7.10
2019-03-04T18:57:35.264Z,7.14
2019-03-04T19:00:11.283Z,7.15
2019-03-04T19:02:38.438Z,7.18
2019-03-04T19:05:08.977Z,7.22
2019-03-04T19:07:35.742Z,7.18
2019-03-04T19:10:08.046Z,7.23
2019-03-04T19:12:35.090Z,7.36
2019-03-04T19:15:02.487Z,7.37
2019-03-04T19:17:33.460Z,7.38
2019-03-04T19:19:58.175Z,7.42
2019-03-04T19:22:25.087Z,7.40
2019-03-04T19:24:51.883Z,7.35
2019-03-04T19:27:20.309Z,7.26
2019-03-04T19:29:47.815Z,7.16
2019-03-04T19:32:17.314Z,7.07
2019-03-04T19:34:44.131Z,7.08
2019-03-04T19:37:11.416Z,7.09
2019-03-04T19:39:41.607Z,6.91
2019-03-04T19:42:08.462Z,6.90
2019-03-04T19:44:35.491Z,6.96
2019-03-04T19:47:02.685Z,6.92
2019-03-04T19:49:32.580Z,6.90
2019-03-04T19:51:59.402Z,6.88
2019-03-04T19:54:26.441Z,6.82
2019-03-04T19:56:53.247Z,6.85
2019-03-04T19:59:20.258Z,6.80
2019-03-04T20:01:47.362Z,6.69
2019-03-04T20:04:14.782Z,6.70
2019-03-04T20:06:41.690Z,6.64
2019-03-04T20:09:09.400Z,6.73
2019-03-04T20:11:36.609Z,6.76
2019-03-04T20:14:03.414Z,6.79
2019-03-04T20:16:30.679Z,6.72
2019-03-04T20:18:57.751Z,6.79
2019-03-04T20:21:24.622Z,6.84
2019-03-04T20:23:51.533Z,6.83
2019-03-04T20:26:18.328Z,6.85
2019-03-04T20:28:45.361Z,6.87
2019-03-04T20:31:12.717Z,6.85
2019-03-04T20:33:39.914Z,6.84
2019-03-04T20:36:07.093Z,6.78
2019-03-04T20:38:39.509Z,6.79
2019-03-04T20:41:06.676Z,6.93
2019-03-04T20:43:33.955Z,6.95
2019-03-04T20:46:01.733Z,6.84
2019-03-04T20:48:28.670Z,6.73
2019-03-04T20:51:00.029Z,6.65
2019-03-04T20:53:27.114Z,6.69
2019-03-04T20:55:54.562Z,6.56
2019-03-04T20:58:21.553Z,6.57
2019-03-04T21:00:50.536Z,6.62
2019-03-04T21:03:19.306Z,6.53
2019-03-04T21:05:46.163Z,6.57
2019-03-04T21:08:13.106Z,6.52
2019-03-04T21:10:41.740Z,6.52
2019-03-04T21:13:16.366Z,6.46
2019-03-04T21:15:44.122Z,6.39
2019-03-04T21:18:12.182Z,6.41
2019-03-04T21:20:39.831Z,6.39
2019-03-04T21:23:07.588Z,6.30
2019-03-04T21:25:46.414Z,6.26
2019-03-04T21:28:25.166Z,6.38
2019-03-04T21:31:07.268Z,6.37
2019-03-04T21:34:07.978Z,6.16
2019-03-04T21:37:01.643Z,6.14
2019-03-04T21:39:51.344Z,6.18
2019-03-04T21:42:27.099Z,6.10
2019-03-04T21:45:22.362Z,6.05
2019-03-04T21:48:00.696Z,6.11
2019-03-04T21:50:38.981Z,6.09
2019-03-04T21:53:14.953Z,6.13
2019-03-04T21:55:50.545Z,6.14
2019-03-04T21:58:17.761Z,6.09
2019-03-04T22:00:47.569Z,6.15
2019-03-04T22:03:18.315Z,6.24
2019-03-04T22:05:50.167Z,6.31
2019-03-04T22:08:14.991Z,6.29
2019-03-04T22:10:42.899Z,6.41
2019-03-04T22:13:09.742Z,6.43
2019-03-04T22:15:37.593Z,6.56
2019-03-04T22:18:07.695Z,6.60
2019-03-04T22:20:37.524Z,6.63
2019-03-04T22:23:06.205Z,6.67
2019-03-04T22:25:33.005Z,6.65
2019-03-04T22:27:59.899Z,6.68
2019-03-04T22:30:26.811Z,6.76
2019-03-04T22:32:53.560Z,6.73
2019-03-04T22:35:20.558Z,6.72
2019-03-04T22:37:47.925Z,6.71
2019-03-04T22:40:18.784Z,6.74
2019-03-04T22:42:45.627Z,6.78
2019-03-04T22:45:15.861Z,6.84
2019-03-04T22:47:43.223Z,6.88
2019-03-04T22:50:14.209Z,6.88
2019-03-04T22:52:42.085Z,6.86
2019-03-04T22:55:14.638Z,6.84
2019-03-04T22:57:41.390Z,6.85
2019-03-04T23:00:52.248Z,6.84
2019-03-04T23:03:19.315Z,6.84
2019-03-04T23:05:57.434Z,6.85
2019-03-04T23:08:24.276Z,6.88
2019-03-04T23:10:51.222Z,6.90
2019-03-04T23:13:33.316Z,6.91
2019-03-04T23:16:01.091Z,6.85
2019-03-04T23:18:28.209Z,6.83
2019-03-04T23:20:55.427Z,6.79
2019-03-04T23:23:22.254Z,6.78
2019-03-04T23:25:49.468Z,6.84
2019-03-04T23:28:19.279Z,6.89
2019-03-04T23:30:46.194Z,6.92
2019-03-04T23:33:13.085Z,6.94
2019-03-04T23:35:39.918Z,6.88
2019-03-04T23:38:07.130Z,6.92
2019-03-04T23:40:34.057Z,6.94
2019-03-04T23:43:00.845Z,6.91
2019-03-04T23:45:36.917Z,6.95
2019-03-04T23:48:04.761Z,6.94
2019-03-04T23:50:32.281Z,6.94
2019-03-04T23:53:00.089Z,6.90
2019-03-04T23:55:27.100Z,6.84
2019-03-04T23:57:53.921Z,6.83
